createdAt,value
2023-04-13T00:00:36.552Z,100816.31
2023-04-13T00:03:03.738Z,100806.66
2023-04-13T00:05:31.486Z,100809.56
2023-04-13T00:08:03.114Z,100818.06
2023-04-13T00:10:31.514Z,100816.78
2023-04-13T00:13:01.602Z,100818.25
2023-04-13T00:15:28.476Z,100818.25
2023-04-13T00:17:55.356Z,100811.47
2023-04-13T00:20:22.194Z,100808.16
2023-04-13T00:22:49.036Z,100817.03
2023-04-13T00:25:16.616Z,100813.31
2023-04-13T00:27:44.846Z,100824.69
2023-04-13T00:30:14.091Z,100818.88
2023-04-13T00:32:45.124Z,100820.31
2023-04-13T00:35:15.837Z,100816.84
2023-04-13T00:37:43.270Z,100814.75
2023-04-13T00:40:10.945Z,100813.09
2023-04-13T00:42:37.797Z,100811.84
2023-04-13T00:45:04.996Z,100805.06
2023-04-13T00:47:36.439Z,100810.03
2023-04-13T00:50:05.939Z,100812.50
2023-04-13T00:52:39.380Z,100814.78
2023-04-13T00:55:07.405Z,100813.16
2023-04-13T00:57:35.438Z,100809.03
2023-04-13T01:00:07.920Z,100811.25
2023-04-13T01:02:35.328Z,100813.56
2023-04-13T01:05:04.031Z,100803.06
2023-04-13T01:07:45.007Z,100803.88
2023-04-13T01:10:23.710Z,100817.25
2023-04-13T01:12:58.413Z,100820.97
2023-04-13T01:15:28.509Z,100824.06
2023-04-13T01:17:59.840Z,100826.13
2023-04-13T01:20:29.132Z,100828.63
2023-04-13T01:23:01.702Z,100824.50
2023-04-13T01:25:45.653Z,100817.91
2023-04-13T01:28:16.035Z,100805.94
2023-04-13T01:30:44.708Z,100817.47
2023-04-13T01:33:14.146Z,100823.47
2023-04-13T01:35:42.254Z,100831.09
2023-04-13T01:38:14.399Z,100842.00
2023-04-13T01:40:41.795Z,100828.19
2023-04-13T01:43:10.474Z,100814.19
2023-04-13T01:46:04.915Z,100798.13
2023-04-13T01:48:40.579Z,100811.09
2023-04-13T01:51:32.359Z,100808.00
2023-04-13T01:54:12.858Z,100803.91
2023-04-13T01:56:43.947Z,100800.16
2023-04-13T01:59:11.420Z,100791.09
2023-04-13T02:01:41.526Z,100805.94
2023-04-13T02:04:09.025Z,100799.97
2023-04-13T02:06:37.835Z,100803.91
2023-04-13T02:09:06.961Z,100798.94
2023-04-13T02:11:35.699Z,100801.41
2023-04-13T02:14:04.943Z,100803.91
2023-04-13T02:16:33.112Z,100801.00
2023-04-13T02:19:00.294Z,100814.63
2023-04-13T02:21:28.290Z,100810.50
2023-04-13T02:23:55.097Z,100802.25
2023-04-13T02:26:23.148Z,100808.00
2023-04-13T02:28:51.434Z,100812.97
2023-04-13T02:31:20.435Z,100809.44
2023-04-13T02:33:47.787Z,100805.53
2023-04-13T02:36:17.189Z,100811.47
2023-04-13T02:38:51.683Z,100820.16
2023-04-13T02:41:25.025Z,100830.25
2023-04-13T02:43:52.315Z,100836.88
2023-04-13T02:46:22.944Z,100834.56
2023-04-13T02:48:56.570Z,100843.03
2023-04-13T02:51:25.216Z,100838.31
2023-04-13T02:53:52.654Z,100845.53
2023-04-13T02:56:19.686Z,100853.97
2023-04-13T02:58:52.610Z,100856.19
2023-04-13T03:01:20.087Z,100853.72
2023-04-13T03:03:47.945Z,100854.75
2023-04-13T03:06:15.190Z,100857.00
2023-04-13T03:08:46.365Z,100861.72
2023-04-13T03:11:23.626Z,100861.25
2023-04-13T03:14:13.037Z,100868.72
2023-04-13T03:16:40.678Z,100876.09
2023-04-13T03:19:08.781Z,100866.59
2023-04-13T03:21:37.256Z,100855.22
2023-04-13T03:24:09.581Z,100858.16
2023-04-13T03:26:37.744Z,100864.69
2023-04-13T03:29:08.533Z,100861.38
2023-04-13T03:31:41.414Z,100869.13
2023-04-13T03:34:08.921Z,100862.13
2023-04-13T03:36:37.308Z,100847.75
2023-04-13T03:39:05.548Z,100850.41
2023-04-13T03:41:35.489Z,100842.16
2023-04-13T03:44:04.856Z,100840.13
2023-04-13T03:46:33.226Z,100849.16
2023-04-13T03:49:09.188Z,100841.31
2023-04-13T03:51:37.555Z,100861.84
2023-04-13T03:54:04.864Z,100855.00
2023-04-13T03:56:32.999Z,100856.81
2023-04-13T03:59:00.259Z,100856.06
2023-04-13T04:01:27.582Z,100869.78
2023-04-13T04:03:57.717Z,100873.72
2023-04-13T04:06:29.932Z,100875.00
2023-04-13T04:09:09.487Z,100871.31
2023-04-13T04:11:42.582Z,100871.38
2023-04-13T04:14:10.850Z,100870.41
2023-04-13T04:16:39.717Z,100873.03
2023-04-13T04:19:13.156Z,100872.09
2023-04-13T04:21:46.822Z,100868.72
2023-04-13T04:24:23.618Z,100868.75
2023-04-13T04:26:55.830Z,100875.81
2023-04-13T04:29:34.441Z,100872.09
2023-04-13T04:32:10.894Z,100886.63
2023-04-13T04:34:38.994Z,100884.53
2023-04-13T04:37:19.795Z,100885.44
2023-04-13T04:39:53.486Z,100875.97
2023-04-13T04:42:20.959Z,100885.25
2023-04-13T04:44:50.368Z,100886.38
2023-04-13T04:47:19.859Z,100883.19
2023-04-13T04:50:04.056Z,100892.38
2023-04-13T04:52:36.470Z,100897.13
2023-04-13T04:55:06.369Z,100895.66
2023-04-13T04:57:34.653Z,100904.31
2023-04-13T05:00:10.820Z,100904.81
2023-04-13T05:02:40.049Z,100909.84
2023-04-13T05:05:11.730Z,100916.00
2023-04-13T05:07:40.042Z,100914.59
2023-04-13T05:10:09.415Z,100926.09
2023-04-13T05:12:41.185Z,100925.78
2023-04-13T05:15:09.111Z,100930.41
2023-04-13T05:17:36.696Z,100933.53
2023-04-13T05:20:07.279Z,100929.63
2023-04-13T05:22:49.215Z,100930.09
2023-04-13T05:25:16.880Z,100939.56
2023-04-13T05:27:44.862Z,100938.28
2023-04-13T05:30:12.632Z,100929.19
2023-04-13T05:32:41.233Z,100932.50
2023-04-13T05:35:08.481Z,100938.47
2023-04-13T05:37:35.258Z,100933.97
2023-04-13T05:40:02.902Z,100944.75
2023-04-13T05:42:33.439Z,100952.47
2023-04-13T05:45:01.615Z,100951.03
2023-04-13T05:47:29.596Z,100957.28
2023-04-13T05:50:01.901Z,100969.03
2023-04-13T05:52:30.560Z,100960.38
2023-04-13T05:54:58.169Z,100969.94
2023-04-13T05:57:26.464Z,100972.03
2023-04-13T05:59:55.009Z,100975.53
2023-04-13T06:02:29.304Z,100975.78
2023-04-13T06:04:56.491Z,100983.19
2023-04-13T06:07:23.642Z,100994.66
2023-04-13T06:09:50.411Z,100993.56
2023-04-13T06:12:18.371Z,100999.25
2023-04-13T06:14:46.012Z,100998.41
2023-04-13T06:17:12.879Z,101007.13
2023-04-13T06:19:39.978Z,101010.66
2023-04-13T06:22:07.085Z,101002.72
2023-04-13T06:24:37.561Z,101001.25
2023-04-13T06:27:06.253Z,101002.72
2023-04-13T06:29:33.258Z,101000.75
2023-04-13T06:32:07.514Z,101006.09
2023-04-13T06:34:35.827Z,100996.69
2023-04-13T06:37:05.146Z,100998.53
2023-04-13T06:39:40.533Z,101000.63
2023-04-13T06:42:09.403Z,100998.31
2023-04-13T06:44:47.985Z,101007.56
2023-04-13T06:47:16.188Z,101007.06
2023-04-13T06:49:44.648Z,101008.19
2023-04-13T06:52:12.367Z,101005.72
2023-04-13T06:54:39.404Z,101010.72
2023-04-13T06:57:18.893Z,101011.88
2023-04-13T06:59:45.835Z,101007.31
2023-04-13T07:02:12.606Z,101009.91
2023-04-13T07:04:39.646Z,101015.00
2023-04-13T07:07:06.833Z,101021.56
2023-04-13T07:09:34.361Z,101026.56
2023-04-13T07:12:09.865Z,101022.47
2023-04-13T07:14:39.186Z,101022.88
2023-04-13T07:17:11.243Z,101027.91
2023-04-13T07:19:39.549Z,101024.28
2023-04-13T07:22:06.297Z,101014.69
2023-04-13T07:24:34.628Z,101025.50
2023-04-13T07:27:05.878Z,101020.34
2023-04-13T07:29:33.380Z,101023.97
2023-04-13T07:32:06.058Z,101020.75
2023-04-13T07:34:34.867Z,101015.81
2023-04-13T07:37:01.637Z,101012.13
2023-04-13T07:39:28.462Z,101009.50
2023-04-13T07:41:57.306Z,101006.97
2023-04-13T07:44:35.478Z,101005.41
2023-04-13T07:47:03.025Z,100998.47
2023-04-13T07:49:31.540Z,100999.13
2023-04-13T07:51:59.099Z,101005.22
2023-04-13T07:54:28.621Z,101005.66
2023-04-13T07:59:43.405Z,100999.56
2023-04-13T08:02:10.737Z,101000.88
2023-04-13T08:04:40.605Z,101003.75
2023-04-13T08:07:08.951Z,101006.72
2023-04-13T08:09:36.466Z,100998.28
2023-04-13T08:12:04.071Z,100999.75
2023-04-13T08:14:31.103Z,101003.88
2023-04-13T08:16:58.687Z,101012.97
2023-04-13T08:19:25.552Z,101008.84
2023-04-13T08:21:56.729Z,101012.97
2023-04-13T08:24:24.260Z,101013.59
2023-04-13T08:26:54.934Z,101008.22
2023-04-13T08:29:24.186Z,101006.56
2023-04-13T08:31:51.686Z,100999.34
2023-04-13T08:34:19.257Z,101001.44
2023-04-13T08:36:46.672Z,100995.63
2023-04-13T08:39:14.942Z,100994.00
2023-04-13T08:41:47.850Z,100983.03
2023-04-13T08:44:17.740Z,100981.34
2023-04-13T08:46:48.571Z,100980.31
2023-04-13T08:49:21.041Z,100979.22
2023-04-13T08:52:16.722Z,100978.41
2023-04-13T08:54:47.695Z,100976.75
2023-04-13T08:57:21.190Z,100973.47
2023-04-13T08:59:55.281Z,100973.78
2023-04-13T09:02:24.598Z,100971.00
2023-04-13T09:05:00.243Z,100971.38
2023-04-13T09:07:32.453Z,100960.66
2023-04-13T09:10:06.010Z,100979.66
2023-04-13T09:12:32.866Z,100977.69
2023-04-13T09:14:59.743Z,100982.63
2023-04-13T09:17:35.213Z,100981.22
2023-04-13T09:20:13.913Z,100981.72
2023-04-13T09:22:41.280Z,100974.22
2023-04-13T09:25:19.211Z,100982.75
2023-04-13T09:27:46.014Z,100994.25
2023-04-13T09:30:13.516Z,100990.38
2023-04-13T09:32:40.370Z,100981.94
2023-04-13T09:35:08.481Z,100982.56
2023-04-13T09:37:36.838Z,100986.75
2023-04-13T09:40:16.947Z,100984.75
2023-04-13T09:43:04.654Z,100983.94
2023-04-13T09:45:35.124Z,100987.44
2023-04-13T09:48:03.494Z,100980.69
2023-04-13T09:50:33.911Z,100979.50
2023-04-13T09:53:05.345Z,100981.81
2023-04-13T09:55:37.265Z,100974.63
2023-04-13T09:58:12.345Z,100980.50
2023-04-13T10:00:42.027Z,100969.94
2023-04-13T10:03:19.015Z,100970.03
2023-04-13T10:05:58.830Z,100970.19
2023-04-13T10:10:59.522Z,100960.09
2023-04-13T10:13:32.036Z,100964.78
2023-04-13T10:16:22.801Z,100952.38
2023-04-13T10:19:00.361Z,100952.66
2023-04-13T10:21:39.331Z,100958.25
2023-04-13T10:24:12.081Z,100954.63
2023-04-13T10:26:41.173Z,100955.25
2023-04-13T10:29:09.208Z,100962.56
2023-04-13T10:31:39.945Z,100946.63
2023-04-13T10:34:10.776Z,100962.97
2023-04-13T10:36:40.430Z,100945.34
2023-04-13T10:39:08.327Z,100955.09
2023-04-13T10:41:36.979Z,100948.53
2023-04-13T10:44:10.561Z,100943.50
2023-04-13T10:46:37.527Z,100951.31
2023-04-13T10:49:05.058Z,100942.31
2023-04-13T10:51:42.173Z,100944.88
2023-04-13T10:54:10.641Z,100947.28
2023-04-13T10:56:37.611Z,100946.34
2023-04-13T10:59:04.634Z,100932.78
2023-04-13T11:01:32.060Z,100938.00
2023-04-13T11:04:07.758Z,100932.00
2023-04-13T11:06:38.138Z,100920.47
2023-04-13T11:09:07.116Z,100916.84
2023-04-13T11:11:36.636Z,100909.59
2023-04-13T11:14:05.149Z,100897.88
2023-04-13T11:16:31.953Z,100887.81
2023-04-13T11:19:05.528Z,100905.28
2023-04-13T11:21:32.611Z,100889.38
2023-04-13T11:24:02.147Z,100888.47
2023-04-13T11:26:33.967Z,100876.47
2023-04-13T11:29:00.995Z,100876.72
2023-04-13T11:31:42.307Z,100857.72
2023-04-13T11:34:11.373Z,100862.66
2023-04-13T11:36:41.044Z,100848.06
2023-04-13T11:39:10.796Z,100846.53
2023-04-13T11:41:41.876Z,100841.13
2023-04-13T11:44:11.415Z,100843.72
2023-04-13T11:46:38.434Z,100831.63
2023-04-13T11:49:05.418Z,100842.88
2023-04-13T11:51:33.191Z,100838.38
2023-04-13T11:54:01.114Z,100840.03
2023-04-13T11:56:28.054Z,100828.78
2023-04-13T11:58:55.264Z,100827.34
2023-04-13T12:01:27.175Z,100819.56
2023-04-13T12:04:13.961Z,100812.81
2023-04-13T12:06:45.568Z,100813.50
2023-04-13T12:09:16.621Z,100809.34
2023-04-13T12:11:50.208Z,100797.00
2023-04-13T12:19:26.441Z,100793.16
2023-04-13T12:21:57.293Z,100791.84
2023-04-13T12:24:37.878Z,100807.19
2023-04-13T12:29:39.900Z,100788.94
2023-04-13T12:32:13.943Z,100782.47
2023-04-13T12:34:41.679Z,100781.66
2023-04-13T12:37:08.840Z,100784.69
2023-04-13T12:39:35.682Z,100795.19
2023-04-13T12:42:02.582Z,100798.81
2023-04-13T12:44:30.731Z,100804.75
2023-04-13T12:46:58.517Z,100791.22
2023-04-13T12:49:25.827Z,100780.28
2023-04-13T12:51:52.544Z,100771.81
2023-04-13T12:54:19.317Z,100775.72
2023-04-13T12:56:46.229Z,100770.00
2023-04-13T12:59:13.053Z,100765.41
2023-04-13T13:01:39.806Z,100768.22
2023-04-13T13:04:06.984Z,100764.00
2023-04-13T13:06:34.291Z,100760.44
2023-04-13T13:09:01.442Z,100757.56
2023-04-13T13:11:28.614Z,100748.94
2023-04-13T13:13:55.389Z,100749.53
2023-04-13T13:16:22.338Z,100749.31
2023-04-13T13:18:52.553Z,100753.88
2023-04-13T13:21:20.032Z,100738.53
2023-04-13T13:23:46.909Z,100742.00
2023-04-13T13:26:23.943Z,100734.88
2023-04-13T13:28:52.155Z,100731.63
2023-04-13T13:31:19.610Z,100717.22
2023-04-13T13:33:46.988Z,100727.13
2023-04-13T13:36:14.684Z,100714.53
2023-04-13T13:38:43.125Z,100722.22
2023-04-13T13:41:10.435Z,100707.88
2023-04-13T13:43:37.944Z,100691.19
2023-04-13T13:46:08.292Z,100703.31
2023-04-13T13:48:37.578Z,100711.81
2023-04-13T13:51:22.986Z,100701.31
2023-04-13T13:53:50.471Z,100706.00
2023-04-13T13:56:17.342Z,100711.72
2023-04-13T13:58:44.040Z,100704.09
2023-04-13T14:01:10.975Z,100696.22
2023-04-13T14:03:38.207Z,100703.06
2023-04-13T14:06:05.402Z,100699.59
2023-04-13T14:08:32.289Z,100701.16
2023-04-13T14:11:00.864Z,100679.97
2023-04-13T14:13:27.768Z,100700.16
2023-04-13T14:15:58.749Z,100704.28
2023-04-13T14:18:25.867Z,100679.47
2023-04-13T14:20:53.279Z,100678.78
2023-04-13T14:23:20.117Z,100693.63
2023-04-13T14:25:46.857Z,100681.78
2023-04-13T14:28:14.521Z,100694.94
2023-04-13T14:30:41.443Z,100692.88
2023-04-13T14:33:08.373Z,100697.31
2023-04-13T14:35:35.543Z,100689.63
2023-04-13T14:38:02.418Z,100693.53
2023-04-13T14:40:29.183Z,100696.34
2023-04-13T14:42:56.024Z,100691.19
2023-04-13T14:45:23.614Z,100705.22
2023-04-13T14:47:50.642Z,100720.09
2023-04-13T14:50:17.546Z,100699.94
2023-04-13T14:52:45.813Z,100715.09
2023-04-13T14:55:13.863Z,100711.59
2023-04-13T14:57:41.616Z,100704.03
2023-04-13T15:00:29.483Z,100707.47
2023-04-13T15:02:56.620Z,100705.66
2023-04-13T15:05:23.695Z,100713.03
2023-04-13T15:07:51.034Z,100714.03
2023-04-13T15:10:18.440Z,100715.81
2023-04-13T15:12:45.361Z,100716.78
2023-04-13T15:15:12.206Z,100729.81
2023-04-13T15:17:39.034Z,100734.44
2023-04-13T15:20:07.615Z,100726.88
2023-04-13T15:22:36.088Z,100721.63
2023-04-13T15:25:03.567Z,100731.88
2023-04-13T15:27:30.473Z,100736.44
2023-04-13T15:29:59.804Z,100747.00
2023-04-13T15:32:26.566Z,100746.94
2023-04-13T15:34:56.268Z,100761.13
2023-04-13T15:37:26.149Z,100754.56
2023-04-13T15:39:54.355Z,100759.19
2023-04-13T15:42:22.166Z,100771.03
2023-04-13T15:44:48.951Z,100777.28
2023-04-13T15:47:15.769Z,100759.69
2023-04-13T15:49:42.565Z,100755.81
2023-04-13T15:52:09.343Z,100755.53
2023-04-13T15:54:36.131Z,100760.31
2023-04-13T15:57:03.066Z,100773.19
2023-04-13T15:59:30.938Z,100769.75
2023-04-13T16:01:57.815Z,100762.53
2023-04-13T16:04:24.909Z,100762.47
2023-04-13T16:07:05.045Z,100753.22
2023-04-13T16:09:38.596Z,100769.50
2023-04-13T16:12:11.103Z,100760.88
2023-04-13T16:14:44.835Z,100765.41
2023-04-13T16:17:15.108Z,100763.06
2023-04-13T16:19:47.430Z,100765.88
2023-04-13T16:22:14.490Z,100771.72
2023-04-13T16:24:42.065Z,100777.13
2023-04-13T16:27:10.172Z,100788.91
2023-04-13T16:29:37.109Z,100752.53
2023-04-13T16:32:03.950Z,100774.59
2023-04-13T16:34:30.824Z,100780.19
2023-04-13T16:36:58.374Z,100790.72
2023-04-13T16:39:25.400Z,100797.66
2023-04-13T16:41:52.219Z,100797.31
2023-04-13T16:44:19.138Z,100806.50
2023-04-13T16:46:46.215Z,100827.88
2023-04-13T16:49:13.021Z,100822.34
2023-04-13T16:51:39.745Z,100834.97
2023-04-13T16:54:06.675Z,100861.28
2023-04-13T16:56:33.412Z,100878.03
2023-04-13T16:59:00.437Z,100891.94
2023-04-13T17:01:28.399Z,100884.69
2023-04-13T17:03:55.530Z,100857.50
2023-04-13T17:06:22.456Z,100891.31
2023-04-13T17:08:49.224Z,100886.41
2023-04-13T17:11:16.068Z,100875.22
2023-04-13T17:13:42.894Z,100884.38
2023-04-13T17:16:10.353Z,100875.97
2023-04-13T17:18:37.173Z,100883.78
2023-04-13T17:21:04.206Z,100915.81
2023-04-13T17:23:31.544Z,100913.78
2023-04-13T17:25:58.284Z,100913.94
2023-04-13T17:28:25.570Z,100903.47
2023-04-13T17:30:52.689Z,100896.03
2023-04-13T17:33:19.460Z,100912.94
2023-04-13T17:35:46.581Z,100908.03
2023-04-13T17:38:13.461Z,100918.09
2023-04-13T17:40:40.303Z,100909.59
2023-04-13T17:43:08.684Z,100911.31
2023-04-13T17:45:35.482Z,100908.97
2023-04-13T17:48:02.725Z,100915.56
2023-04-13T17:50:31.862Z,100911.97
2023-04-13T17:53:00.408Z,100917.16
2023-04-13T17:55:27.277Z,100923.78
2023-04-13T17:57:54.002Z,100925.38
2023-04-13T18:00:20.817Z,100933.41
2023-04-13T18:02:50.901Z,100942.28
2023-04-13T18:05:18.454Z,100945.19
2023-04-13T18:07:45.551Z,100946.34
2023-04-13T18:10:12.499Z,100976.09
2023-04-13T18:12:40.757Z,100936.91
2023-04-13T18:15:08.656Z,100958.94
2023-04-13T18:17:36.707Z,100958.94
2023-04-13T18:20:04.190Z,100964.53
2023-04-13T18:22:32.769Z,100962.72
2023-04-13T18:24:59.662Z,100962.97
2023-04-13T18:27:27.715Z,100963.16
2023-04-13T18:29:55.508Z,100968.13
2023-04-13T18:32:23.376Z,100966.72
2023-04-13T18:34:50.442Z,100969.41
2023-04-13T18:37:17.175Z,100978.91
2023-04-13T18:39:44.983Z,100964.84
2023-04-13T18:42:11.907Z,100973.09
2023-04-13T18:44:38.703Z,100968.56
2023-04-13T18:47:05.710Z,100977.47
2023-04-13T18:49:32.642Z,100982.19
2023-04-13T18:51:59.490Z,100995.63
2023-04-13T18:54:26.248Z,100988.41
2023-04-13T18:56:52.976Z,101001.63
2023-04-13T18:59:19.864Z,101004.31
2023-04-13T19:01:47.396Z,101005.13
2023-04-13T19:04:14.458Z,101019.56
2023-04-13T19:06:41.263Z,101022.03
2023-04-13T19:09:08.357Z,101027.00
2023-04-13T19:11:50.318Z,101031.53
2023-04-13T19:14:17.346Z,101039.38
2023-04-13T19:16:45.711Z,101046.34
2023-04-13T19:19:14.607Z,101046.97
2023-04-13T19:21:41.382Z,101053.19
2023-04-13T19:24:08.563Z,101060.00
2023-04-13T19:26:35.320Z,101061.63
2023-04-13T19:29:04.000Z,101065.03
2023-04-13T19:31:34.695Z,101081.09
2023-04-13T19:34:01.725Z,101082.50
2023-04-13T19:36:28.637Z,101086.84
2023-04-13T19:38:55.571Z,101100.00
2023-04-13T19:41:23.570Z,101111.09
2023-04-13T19:43:51.050Z,101119.28
2023-04-13T19:46:17.828Z,101119.75
2023-04-13T19:48:44.805Z,101119.50
2023-04-13T19:51:11.711Z,101134.31
2023-04-13T19:53:38.576Z,101133.25
2023-04-13T19:56:05.469Z,101136.22
2023-04-13T19:58:32.778Z,101134.78
2023-04-13T20:01:00.327Z,101144.81
2023-04-13T20:03:28.674Z,101138.84
2023-04-13T20:05:58.631Z,101140.75
2023-04-13T20:08:25.746Z,101141.81
2023-04-13T20:10:52.812Z,101154.00
2023-04-13T20:13:19.592Z,101145.41
2023-04-13T20:15:46.395Z,101149.88
2023-04-13T20:18:13.170Z,101156.88
2023-04-13T20:20:42.429Z,101161.44
2023-04-13T20:23:09.611Z,101153.81
2023-04-13T20:25:38.582Z,101157.44
2023-04-13T20:28:05.968Z,101156.47
2023-04-13T20:30:32.890Z,101152.38
2023-04-13T20:32:59.607Z,101151.06
2023-04-13T20:35:27.895Z,101161.03
2023-04-13T20:37:55.319Z,101152.84
2023-04-13T20:40:27.087Z,101150.63
2023-04-13T20:42:55.264Z,101142.59
2023-04-13T20:45:23.325Z,101137.69
2023-04-13T20:47:53.372Z,101146.72
2023-04-13T20:50:23.863Z,101143.81
2023-04-13T20:52:53.349Z,101142.97
2023-04-13T20:55:21.352Z,101156.38
2023-04-13T20:57:49.936Z,101142.19
2023-04-13T21:00:18.199Z,101145.47
2023-04-13T21:02:46.912Z,101151.03
2023-04-13T21:05:14.571Z,101140.88
2023-04-13T21:07:41.941Z,101150.16
2023-04-13T21:10:10.041Z,101148.00
2023-04-13T21:12:37.056Z,101133.34
2023-04-13T21:15:04.471Z,101144.59
2023-04-13T21:17:31.717Z,101148.50
2023-04-13T21:19:58.577Z,101139.78
2023-04-13T21:22:25.396Z,101139.03
2023-04-13T21:24:52.235Z,101150.00
2023-04-13T21:27:19.336Z,101154.97
2023-04-13T21:29:46.265Z,101160.47
2023-04-13T21:32:13.722Z,101154.16
2023-04-13T21:34:40.600Z,101162.78
2023-04-13T21:37:07.468Z,101158.03
2023-04-13T21:39:34.564Z,101160.44
2023-04-13T21:42:01.377Z,101180.69
2023-04-13T21:44:30.187Z,101181.75
2023-04-13T21:46:58.611Z,101169.41
2023-04-13T21:49:25.589Z,101163.06
2023-04-13T21:51:52.295Z,101165.06
2023-04-13T21:54:19.229Z,101165.81
2023-04-13T21:56:46.871Z,101157.78
2023-04-13T21:59:13.775Z,101162.34
2023-04-13T22:01:40.591Z,101163.16
2023-04-13T22:04:07.565Z,101162.94
2023-04-13T22:06:34.383Z,101157.78
2023-04-13T22:09:01.466Z,101171.16
2023-04-13T22:11:28.522Z,101161.34
2023-04-13T22:13:55.271Z,101174.38
2023-04-13T22:16:22.161Z,101170.69
2023-04-13T22:18:49.364Z,101171.31
2023-04-13T22:21:16.170Z,101166.22
2023-04-13T22:23:42.868Z,101162.53
2023-04-13T22:26:09.748Z,101157.72
2023-04-13T22:28:36.461Z,101149.44
2023-04-13T22:31:08.097Z,101154.22
2023-04-13T22:33:40.425Z,101156.03
2023-04-13T22:36:17.566Z,101149.06
2023-04-13T22:38:44.522Z,101156.50
2023-04-13T22:41:11.498Z,101151.13
2023-04-13T22:43:38.475Z,101143.38
2023-04-13T22:46:05.887Z,101142.63
2023-04-13T22:48:32.682Z,101135.22
2023-04-13T22:51:03.623Z,101134.00
2023-04-13T22:53:31.204Z,101136.31
2023-04-13T22:55:59.353Z,101143.94
2023-04-13T22:58:26.605Z,101148.47
2023-04-13T23:00:53.422Z,101149.75
2023-04-13T23:03:21.411Z,101153.03
2023-04-13T23:05:48.582Z,101147.47
2023-04-13T23:08:15.557Z,101149.34
2023-04-13T23:10:42.394Z,101142.31
2023-04-13T23:13:09.210Z,101145.81
2023-04-13T23:15:36.180Z,101142.66
2023-04-13T23:18:02.997Z,101142.63
2023-04-13T23:20:30.168Z,101140.13
2023-04-13T23:22:56.930Z,101138.09
2023-04-13T23:25:23.697Z,101130.25
2023-04-13T23:27:50.518Z,101131.91
2023-04-13T23:30:17.388Z,101143.25
2023-04-13T23:32:44.301Z,101140.59
2023-04-13T23:35:11.121Z,101146.13
2023-04-13T23:37:37.873Z,101143.47
2023-04-13T23:40:05.509Z,101130.59
2023-04-13T23:42:32.403Z,101121.56
2023-04-13T23:44:59.181Z,101117.22
2023-04-13T23:47:26.091Z,101104.88
2023-04-13T23:49:54.193Z,101104.25
2023-04-13T23:52:21.072Z,101100.75
2023-04-13T23:54:47.921Z,101112.28
2023-04-13T23:57:14.774Z,101110.59
2023-04-13T23:59:41.632Z,101114.94
